Manhattan, KS

7:17 AM CDT on October 30, 2014 (GMT -0500)
500 yards west of Bill Snyder Family Stadium | Change Station
CLOSE
Current Station
Personal Weather Station
Location: Manhattan, KS
Elevation: 1150 ft
Nearby Weather Stations
Active Advisory: Freeze Warning

Elev 1150 ft 39.19 °N, 96.59 °W | Updated 16 seconds ago

Partly Cloudy
Partly Cloudy
49.3 °F
Feels Like 49 °F
N
0.0
Wind Variable Wind from NE
Gusts 0.0 mph

Today
High -- | Low -- °F
--% Chance of Precip.
Yesterday
High -- | Low -- °F
Precip. -- in
7:51 AM 6:27 PM
Waxing Crescent, 43% visible
Pressure 30.01 in
Visibility 10.0 miles
Clouds Clear
Windchill 49 °F
Dew Point 39 °F
Humidity 68%
Rainfall 0.00 in
Snow Depth Not available.
UV 0 out of 12
Pollen 2.40 out of 12
Air Quality Not available.
Flu Activity Not available.
METAR KMHK 301152Z 25005KT 10SM CLR 10/02 A3000 RMK AO2 SLP160 T01000022 10133 20061 53012

More Conditions Fewer Conditions

Pressure 30.01 in
Visibility 10.0 miles
Clouds Clear
Windchill 49 °F
Dew Point 39 °F
Humidity 68%
Rainfall 0.00 in
Snow Depth Not available.
UV 0 out of 12
Pollen 2.40 out of 12
Air Quality Not available.
Flu Activity Not available.
METAR KMHK 301152Z 25005KT 10SM CLR 10/02 A3000 RMK AO2 SLP160 T01000022 10133 20061 53012

More Conditions Fewer Conditions

10-Day Weather Forecast

Almanac

Astronomy

Oct. 30, 2014 Rise Set
Actual Time
Civil Twilight
Nautical Twilight
Astronomical Twilight
Moon
Length of Visible Light
Length of Day
Tomorrow will be .
, % of the Moon is Illuminated

Today's Extremes

State Highs State Lows

Community

WunderPhotos

Upload Photos

1,766,349 photos uploaded!

WunderBlogs® & News

Nearby

Air Quality

  Air Quality AQ Index Pollutant
Not available.

Snow Depth

Station Depth Elevation

Earthquake Activity

City Distance Mag. Time & Date
Minimum magnitude displayed is 2.5.

Coastal Water Temperatures

Place Temperature

Nearby Weather Stations